createdAt,value
2023-03-18T00:04:02.455Z,14.48
2023-03-18T00:06:40.788Z,15.73
2023-03-18T00:09:11.564Z,14.75
2023-03-18T00:11:40.656Z,13.95
2023-03-18T00:14:10.581Z,14.98
2023-03-18T00:16:50.687Z,14.55
2023-03-18T00:19:56.962Z,15.65
2023-03-18T00:22:29.954Z,15.65
2023-03-18T00:25:01.901Z,14.48
2023-03-18T00:27:43.950Z,14.75
2023-03-18T00:30:34.027Z,15.13
2023-03-18T00:33:34.168Z,14.63
2023-03-18T00:36:04.607Z,14.45
2023-03-18T00:39:28.316Z,16.38
2023-03-18T00:46:48.643Z,14.50
2023-03-18T00:49:27.729Z,16.27
2023-03-18T00:51:58.238Z,17.35
2023-03-18T00:55:39.471Z,15.93
2023-03-18T00:59:17.882Z,18.02
2023-03-18T01:06:14.389Z,16.85
2023-03-18T01:09:05.897Z,17.00
2023-03-18T01:16:01.975Z,16.50
2023-03-18T01:18:37.166Z,17.65
2023-03-18T01:25:09.359Z,15.68
2023-03-18T01:27:43.909Z,17.65
2023-03-18T01:30:13.757Z,17.17
2023-03-18T01:32:45.114Z,18.60
2023-03-18T01:35:16.804Z,17.55
2023-03-18T01:37:51.550Z,17.27
2023-03-18T01:40:30.872Z,17.98
2023-03-18T01:47:26.162Z,15.45
2023-03-18T01:49:54.898Z,15.18
2023-03-18T01:52:27.113Z,16.15
2023-03-18T01:55:04.048Z,16.90
2023-03-18T01:57:33.399Z,16.38
2023-03-18T02:00:02.056Z,17.02
2023-03-18T02:02:33.048Z,15.27
2023-03-18T02:05:06.436Z,15.50
2023-03-18T02:07:36.971Z,15.13
2023-03-18T02:10:13.390Z,15.00
2023-03-18T02:12:49.972Z,15.75
2023-03-18T02:15:27.372Z,15.55
2023-03-18T02:18:11.786Z,15.32
2023-03-18T02:21:23.490Z,16.45
2023-03-18T02:24:20.175Z,15.43
2023-03-18T02:27:01.519Z,16.05
2023-03-18T02:29:44.887Z,17.85
2023-03-18T02:32:18.812Z,15.30
2023-03-18T02:34:47.745Z,16.95
2023-03-18T02:37:17.105Z,17.98
2023-03-18T02:39:45.439Z,17.30
2023-03-18T02:42:15.598Z,16.73
2023-03-18T02:45:19.974Z,16.85
2023-03-18T02:48:04.168Z,16.55
2023-03-18T02:50:34.238Z,16.85
2023-03-18T02:53:06.002Z,14.90
2023-03-18T02:55:36.836Z,16.42
2023-03-18T02:58:05.344Z,16.40
2023-03-18T03:00:34.845Z,16.52
2023-03-18T03:03:02.751Z,15.80
2023-03-18T03:05:36.996Z,14.57
2023-03-18T03:08:08.015Z,16.10
2023-03-18T03:10:40.367Z,16.45
2023-03-18T03:13:12.478Z,15.45
2023-03-18T03:15:40.866Z,14.88
2023-03-18T03:18:11.679Z,15.50
2023-03-18T03:20:42.063Z,13.98
2023-03-18T03:23:14.050Z,15.82
2023-03-18T03:25:42.756Z,14.65
2023-03-18T03:28:13.784Z,15.43
2023-03-18T03:30:42.566Z,12.63
2023-03-18T03:33:11.109Z,15.07
2023-03-18T03:35:42.770Z,14.57
2023-03-18T03:38:26.137Z,15.55
2023-03-18T03:40:57.256Z,14.55
2023-03-18T03:43:24.622Z,14.05
2023-03-18T03:45:54.894Z,14.93
2023-03-18T03:48:23.298Z,14.48
2023-03-18T03:50:52.712Z,14.50
2023-03-18T03:53:21.875Z,13.98
2023-03-18T03:55:51.642Z,14.57
2023-03-18T03:58:20.112Z,15.02
2023-03-18T04:00:50.812Z,15.52
2023-03-18T04:03:19.111Z,15.68
2023-03-18T04:05:47.824Z,15.68
2023-03-18T04:08:17.542Z,15.48
2023-03-18T04:10:44.937Z,15.25
2023-03-18T04:13:15.237Z,14.60
2023-03-18T04:15:44.021Z,15.27
2023-03-18T04:20:44.712Z,14.93
2023-03-18T04:23:22.889Z,13.35
2023-03-18T04:25:52.490Z,15.10
2023-03-18T04:28:23.785Z,14.93
2023-03-18T04:30:51.747Z,15.85
2023-03-18T04:33:21.359Z,15.82
2023-03-18T04:35:56.422Z,17.27
2023-03-18T04:38:24.779Z,16.40
2023-03-18T04:40:53.280Z,17.08
2023-03-18T04:43:21.479Z,15.88
2023-03-18T04:45:52.957Z,16.60
2023-03-18T04:48:22.303Z,16.67
2023-03-18T04:50:50.660Z,16.55
2023-03-18T04:53:26.045Z,16.30
2023-03-18T04:55:54.492Z,17.52
2023-03-18T04:58:27.517Z,16.85
2023-03-18T05:01:14.005Z,17.45
2023-03-18T05:03:41.726Z,17.73
2023-03-18T05:06:22.273Z,17.48
2023-03-18T05:09:05.782Z,16.90
2023-03-18T05:11:35.710Z,19.35
2023-03-18T05:18:26.612Z,18.40
2023-03-18T05:21:00.058Z,19.23
2023-03-18T05:23:28.885Z,19.80
2023-03-18T05:25:57.070Z,18.77
2023-03-18T05:28:28.180Z,18.77
2023-03-18T05:31:13.773Z,19.58
2023-03-18T05:33:42.616Z,19.50
2023-03-18T05:36:12.588Z,17.50
2023-03-18T05:38:55.674Z,19.50
2023-03-18T05:41:24.378Z,20.02
2023-03-18T05:43:55.086Z,19.50
2023-03-18T05:46:24.856Z,21.73
2023-03-18T05:49:10.660Z,20.67
2023-03-18T05:51:58.339Z,18.52
2023-03-18T05:54:40.779Z,19.15
2023-03-18T05:57:12.057Z,19.25
2023-03-18T05:59:40.136Z,18.95
2023-03-18T06:02:11.831Z,20.00
2023-03-18T06:04:54.035Z,19.25
2023-03-18T06:11:52.442Z,18.67
2023-03-18T06:14:44.444Z,19.13
2023-03-18T06:17:40.909Z,19.25
2023-03-18T06:20:21.169Z,18.30
2023-03-18T06:22:49.990Z,18.23
2023-03-18T06:25:19.394Z,16.95
2023-03-18T06:27:48.173Z,17.75
2023-03-18T06:30:18.372Z,17.10
2023-03-18T06:32:47.225Z,17.92
2023-03-18T06:35:15.638Z,18.38
2023-03-18T06:41:35.438Z,17.25
2023-03-18T06:44:25.593Z,15.07
2023-03-18T06:46:56.590Z,16.92
2023-03-18T06:49:24.884Z,15.75
2023-03-18T06:52:00.429Z,15.70
2023-03-18T06:54:36.158Z,16.98
2023-03-18T06:57:08.642Z,15.70
2023-03-18T07:00:01.658Z,15.52
2023-03-18T07:03:13.584Z,15.07
2023-03-18T07:05:48.951Z,14.80
2023-03-18T07:08:18.037Z,13.95
2023-03-18T07:10:52.937Z,13.52
2023-03-18T07:13:25.860Z,14.30
2023-03-18T07:18:44.197Z,12.60
2023-03-18T07:21:21.778Z,13.20
2023-03-18T07:24:03.600Z,13.45
2023-03-18T07:26:31.933Z,13.27
2023-03-18T07:28:59.322Z,11.77
2023-03-18T07:31:26.695Z,12.27
2023-03-18T07:33:58.905Z,12.50
2023-03-18T07:36:28.195Z,12.88
2023-03-18T07:38:55.183Z,11.70
2023-03-18T07:41:22.743Z,11.98
2023-03-18T07:43:51.386Z,12.20
2023-03-18T07:46:20.255Z,11.70
2023-03-18T07:48:50.579Z,11.63
2023-03-18T07:51:20.641Z,11.85
2023-03-18T07:53:48.617Z,11.60
2023-03-18T07:56:20.806Z,11.20
2023-03-18T07:58:49.181Z,10.38
2023-03-18T08:01:19.716Z,10.38
2023-03-18T08:03:50.135Z,9.60
2023-03-18T08:06:19.063Z,9.88
2023-03-18T08:08:51.630Z,10.55
2023-03-18T08:11:18.637Z,9.90
2023-03-18T08:13:48.314Z,10.10
2023-03-18T08:16:17.897Z,9.55
2023-03-18T08:18:46.828Z,9.68
2023-03-18T08:21:14.479Z,9.82
2023-03-18T08:23:41.613Z,9.15
2023-03-18T08:26:09.584Z,9.45
2023-03-18T08:28:36.949Z,8.82
2023-03-18T08:31:05.989Z,8.25
2023-03-18T08:33:33.687Z,8.75
2023-03-18T08:36:02.704Z,9.18
2023-03-18T08:38:29.702Z,8.55
2023-03-18T08:40:57.152Z,8.77
2023-03-18T08:43:25.705Z,8.73
2023-03-18T08:45:57.691Z,8.25
2023-03-18T08:48:26.002Z,8.48
2023-03-18T08:50:56.979Z,8.38
2023-03-18T08:53:24.063Z,8.60
2023-03-18T08:55:53.498Z,7.88
2023-03-18T08:58:20.756Z,7.90
2023-03-18T09:00:48.369Z,7.50
2023-03-18T09:03:16.451Z,7.25
2023-03-18T09:05:44.137Z,6.35
2023-03-18T09:08:11.124Z,6.95
2023-03-18T09:10:38.908Z,6.47
2023-03-18T09:13:06.448Z,11.60
2023-03-18T09:15:34.271Z,5.72
2023-03-18T09:18:12.284Z,6.57
2023-03-18T09:20:42.857Z,6.65
2023-03-18T09:23:12.792Z,5.82
2023-03-18T09:25:43.091Z,6.03
2023-03-18T09:28:11.455Z,5.63
2023-03-18T09:30:39.373Z,5.50
2023-03-18T09:33:07.001Z,6.35
2023-03-18T09:35:36.709Z,5.97
2023-03-18T09:38:06.779Z,5.32
2023-03-18T09:40:51.276Z,5.47
2023-03-18T09:43:44.615Z,5.53
2023-03-18T09:46:57.384Z,5.65
2023-03-18T09:49:40.325Z,5.07
2023-03-18T09:52:15.190Z,4.95
2023-03-18T09:55:05.420Z,4.80
2023-03-18T09:57:38.697Z,4.68
2023-03-18T10:00:29.957Z,4.43
2023-03-18T10:03:06.753Z,4.78
2023-03-18T10:05:56.965Z,3.88
2023-03-18T10:08:44.386Z,4.45
2023-03-18T10:11:33.656Z,4.72
2023-03-18T10:14:25.691Z,4.93
2023-03-18T10:17:14.780Z,4.43
2023-03-18T10:19:48.160Z,4.25
2023-03-18T10:22:55.396Z,4.60
2023-03-18T10:25:32.695Z,4.65
2023-03-18T10:28:19.400Z,4.43
2023-03-18T10:31:47.814Z,4.15
2023-03-18T10:34:16.095Z,4.40
2023-03-18T10:37:09.668Z,4.93
2023-03-18T10:39:38.980Z,4.20
2023-03-18T10:42:32.211Z,4.60
2023-03-18T10:45:13.906Z,4.05
2023-03-18T10:47:46.392Z,4.25
2023-03-18T10:53:31.185Z,3.70
2023-03-18T10:56:10.514Z,3.60
2023-03-18T10:58:39.910Z,3.85
2023-03-18T11:01:17.120Z,3.85
2023-03-18T11:03:59.110Z,3.95
2023-03-18T11:06:47.546Z,3.13
2023-03-18T11:09:22.138Z,2.92
2023-03-18T11:11:55.975Z,3.35
2023-03-18T11:14:31.856Z,3.58
2023-03-18T11:17:18.567Z,3.22
2023-03-18T11:19:49.919Z,2.90
2023-03-18T11:22:20.927Z,2.90
2023-03-18T11:25:04.265Z,2.70
2023-03-18T11:27:48.285Z,2.97
2023-03-18T11:30:33.533Z,2.53
2023-03-18T11:33:18.941Z,2.10
2023-03-18T11:35:48.132Z,2.88
2023-03-18T11:38:19.385Z,2.28
2023-03-18T11:40:47.414Z,2.20
2023-03-18T11:43:22.786Z,2.03
2023-03-18T11:46:11.943Z,2.05
2023-03-18T11:48:41.298Z,1.80
2023-03-18T11:51:13.633Z,1.65
2023-03-18T11:53:56.059Z,1.90
2023-03-18T11:56:57.316Z,2.10
2023-03-18T11:59:55.780Z,1.90
2023-03-18T12:02:59.472Z,2.10
2023-03-18T12:05:58.828Z,2.30
2023-03-18T12:08:41.645Z,2.10
2023-03-18T12:11:14.777Z,2.05
2023-03-18T12:14:05.599Z,1.90
2023-03-18T12:16:43.401Z,1.92
2023-03-18T12:19:11.892Z,1.95
2023-03-18T12:22:17.851Z,2.10
2023-03-18T12:25:11.876Z,1.70
2023-03-18T12:27:58.719Z,1.58
2023-03-18T12:30:38.557Z,1.63
2023-03-18T12:33:10.892Z,1.80
2023-03-18T12:38:23.685Z,1.67
2023-03-18T12:41:21.534Z,2.00
2023-03-18T12:44:29.775Z,1.80
2023-03-18T12:47:14.554Z,1.90
2023-03-18T12:50:00.105Z,1.27
2023-03-18T12:52:40.283Z,1.67
2023-03-18T12:55:17.211Z,1.65
2023-03-18T12:58:02.160Z,1.40
2023-03-18T13:01:10.740Z,2.13
2023-03-18T13:03:40.309Z,1.48
2023-03-18T13:06:26.645Z,1.70
2023-03-18T13:08:58.380Z,1.70
2023-03-18T13:12:04.065Z,1.40
2023-03-18T13:14:52.463Z,1.58
2023-03-18T13:17:36.301Z,2.03
2023-03-18T13:20:21.505Z,1.90
2023-03-18T13:23:14.150Z,1.83
2023-03-18T13:25:54.355Z,1.73
2023-03-18T13:28:40.472Z,1.50
2023-03-18T13:31:41.681Z,1.50
2023-03-18T13:34:26.754Z,1.83
2023-03-18T13:37:12.381Z,1.67
2023-03-18T13:40:17.964Z,1.40
2023-03-18T13:42:49.174Z,1.40
2023-03-18T13:45:41.312Z,1.40
2023-03-18T13:48:17.132Z,1.45
2023-03-18T13:50:52.079Z,1.67
2023-03-18T13:53:22.272Z,1.30
2023-03-18T13:56:05.439Z,1.50
2023-03-18T13:58:50.770Z,1.58
2023-03-18T14:01:24.891Z,1.40
2023-03-18T14:04:10.635Z,1.15
2023-03-18T14:06:52.965Z,1.60
2023-03-18T14:09:32.234Z,1.98
2023-03-18T14:12:40.391Z,1.27
2023-03-18T14:15:13.258Z,1.40
2023-03-18T14:17:47.157Z,1.38
2023-03-18T14:20:19.045Z,1.25
2023-03-18T14:22:55.777Z,1.42
2023-03-18T14:25:41.144Z,0.80
2023-03-18T14:28:08.153Z,1.45
2023-03-18T14:30:35.543Z,0.98
2023-03-18T14:33:30.656Z,1.40
2023-03-18T14:36:10.784Z,1.40
2023-03-18T14:39:03.454Z,1.63
2023-03-18T14:41:33.742Z,1.60
2023-03-18T14:44:21.429Z,1.50
2023-03-18T14:46:59.002Z,1.30
2023-03-18T14:49:38.882Z,1.60
2023-03-18T14:52:36.810Z,1.60
2023-03-18T14:55:17.494Z,1.55
2023-03-18T14:57:47.192Z,1.63
2023-03-18T15:00:21.758Z,1.50
2023-03-18T15:03:00.632Z,1.70
2023-03-18T15:05:35.417Z,1.48
2023-03-18T15:08:07.258Z,1.50
2023-03-18T15:10:34.356Z,1.40
2023-03-18T15:13:05.096Z,1.75
2023-03-18T15:15:34.995Z,1.88
2023-03-18T15:18:18.619Z,1.77
2023-03-18T15:20:51.282Z,2.10
2023-03-18T15:23:32.432Z,2.15
2023-03-18T15:26:04.528Z,1.42
2023-03-18T15:28:33.383Z,1.77
2023-03-18T15:31:02.177Z,1.50
2023-03-18T15:33:35.845Z,1.60
2023-03-18T15:36:14.897Z,1.63
2023-03-18T15:38:50.719Z,1.63
2023-03-18T15:41:21.880Z,1.95
2023-03-18T15:43:52.009Z,2.00
2023-03-18T15:46:25.389Z,1.80
2023-03-18T15:48:58.417Z,1.58
2023-03-18T15:51:42.236Z,1.85
2023-03-18T15:54:43.074Z,1.50
2023-03-18T15:57:25.980Z,1.30
2023-03-18T15:59:54.020Z,1.40
2023-03-18T16:02:22.721Z,1.77
2023-03-18T16:04:50.392Z,1.88
2023-03-18T16:07:22.706Z,1.98
2023-03-18T16:09:51.935Z,1.80
2023-03-18T16:12:24.392Z,2.00
2023-03-18T16:14:55.892Z,1.70
2023-03-18T16:17:22.839Z,1.45
2023-03-18T16:19:55.752Z,1.60
2023-03-18T16:22:23.169Z,1.92
2023-03-18T16:24:50.572Z,1.92
2023-03-18T16:27:42.128Z,1.60
2023-03-18T16:30:27.555Z,1.80
2023-03-18T16:32:58.887Z,1.35
2023-03-18T16:35:34.494Z,1.65
2023-03-18T16:38:02.633Z,1.80
2023-03-18T16:40:31.446Z,1.85
2023-03-18T16:42:58.646Z,2.13
2023-03-18T16:45:31.096Z,1.85
2023-03-18T16:48:07.439Z,1.95
2023-03-18T16:50:39.658Z,1.73
2023-03-18T16:53:29.722Z,2.00
2023-03-18T16:56:04.268Z,2.08
2023-03-18T16:58:38.718Z,1.60
2023-03-18T17:01:07.878Z,1.73
2023-03-18T17:03:36.739Z,2.35
2023-03-18T17:06:13.017Z,2.13
2023-03-18T17:08:42.169Z,2.10
2023-03-18T17:11:18.370Z,2.00
2023-03-18T17:13:47.906Z,1.85
2023-03-18T17:16:21.050Z,1.85
2023-03-18T17:18:49.598Z,0.80
2023-03-18T17:21:17.881Z,0.70
2023-03-18T17:23:47.683Z,0.60
2023-03-18T17:26:16.380Z,1.00
2023-03-18T17:28:46.754Z,0.95
2023-03-18T17:31:14.519Z,0.80
2023-03-18T17:33:42.221Z,0.90
2023-03-18T17:36:12.653Z,1.00
2023-03-18T17:38:40.442Z,0.95
2023-03-18T17:41:20.080Z,0.88
2023-03-18T17:43:49.768Z,1.00
2023-03-18T17:46:17.963Z,0.98
2023-03-18T17:48:48.143Z,0.82
2023-03-18T17:51:23.824Z,1.13
2023-03-18T17:54:01.302Z,1.00
2023-03-18T17:56:28.887Z,1.35
2023-03-18T17:58:56.846Z,1.15
2023-03-18T18:01:31.880Z,1.35
2023-03-18T18:04:00.384Z,1.20
2023-03-18T18:06:29.991Z,1.27
2023-03-18T18:09:00.551Z,1.40
2023-03-18T18:11:35.537Z,1.35
2023-03-18T18:14:29.352Z,1.33
2023-03-18T18:16:57.607Z,1.70
2023-03-18T18:19:24.809Z,1.55
2023-03-18T18:21:55.189Z,3.58
2023-03-18T18:24:30.344Z,5.90
2023-03-18T18:27:10.229Z,1.33
2023-03-18T18:29:39.114Z,1.27
2023-03-18T18:32:09.749Z,1.50
2023-03-18T18:34:36.862Z,1.50
2023-03-18T18:37:04.552Z,1.20
2023-03-18T18:39:34.500Z,1.77
2023-03-18T18:42:01.869Z,1.42
2023-03-18T18:44:31.269Z,1.40
2023-03-18T18:47:00.222Z,1.55
2023-03-18T18:49:32.548Z,1.40
2023-03-18T18:52:01.899Z,1.35
2023-03-18T18:54:31.098Z,1.60
2023-03-18T18:56:58.240Z,1.30
2023-03-18T18:59:31.849Z,1.38
2023-03-18T19:02:00.841Z,1.65
2023-03-18T19:04:29.881Z,1.67
2023-03-18T19:06:57.676Z,1.70
2023-03-18T19:09:34.179Z,1.40
2023-03-18T19:12:01.981Z,1.35
2023-03-18T19:14:54.832Z,1.90
2023-03-18T19:17:24.757Z,1.70
2023-03-18T19:19:56.891Z,1.90
2023-03-18T19:22:26.053Z,1.70
2023-03-18T19:24:53.632Z,1.98
2023-03-18T19:27:27.646Z,1.63
2023-03-18T19:30:00.337Z,1.95
2023-03-18T19:32:53.861Z,2.25
2023-03-18T19:35:25.759Z,1.58
2023-03-18T19:37:53.748Z,2.05
2023-03-18T19:40:30.530Z,2.40
2023-03-18T19:42:57.677Z,2.42
2023-03-18T19:45:32.248Z,2.92
2023-03-18T19:47:59.446Z,2.38
2023-03-18T19:50:27.334Z,2.03
2023-03-18T19:52:56.364Z,2.05
2023-03-18T19:55:28.739Z,2.42
2023-03-18T19:57:58.607Z,2.28
2023-03-18T20:00:28.548Z,2.33
2023-03-18T20:05:42.678Z,2.38
2023-03-18T20:08:13.727Z,2.47
2023-03-18T20:10:42.855Z,2.67
2023-03-18T20:13:18.431Z,3.10
2023-03-18T20:15:45.882Z,3.83
2023-03-18T20:18:17.959Z,3.80
2023-03-18T20:20:48.645Z,3.83
2023-03-18T20:23:27.292Z,3.80
2023-03-18T20:25:54.974Z,4.05
2023-03-18T20:28:45.546Z,4.25
2023-03-18T20:31:16.497Z,4.57
2023-03-18T20:34:13.128Z,5.20
2023-03-18T20:36:44.759Z,5.07
2023-03-18T20:39:22.294Z,4.93
2023-03-18T20:41:55.526Z,4.93
2023-03-18T20:44:23.330Z,4.60
2023-03-18T20:46:53.959Z,5.53
2023-03-18T20:49:21.268Z,5.57
2023-03-18T20:52:00.514Z,5.72
2023-03-18T20:54:31.922Z,5.75
2023-03-18T20:57:00.517Z,5.57
2023-03-18T20:59:27.783Z,5.00
2023-03-18T21:02:31.423Z,4.82
2023-03-18T21:05:01.791Z,5.22
2023-03-18T21:07:29.836Z,5.13
2023-03-18T21:10:00.869Z,4.72
2023-03-18T21:12:31.084Z,4.63
2023-03-18T21:15:04.355Z,4.13
2023-03-18T21:17:36.740Z,3.53
2023-03-18T21:20:21.064Z,3.50
2023-03-18T21:22:50.657Z,3.63
2023-03-18T21:25:24.972Z,2.40
2023-03-18T21:27:53.754Z,1.85
2023-03-18T21:30:29.909Z,2.25
2023-03-18T21:32:59.102Z,2.20
2023-03-18T21:35:27.305Z,2.13
2023-03-18T21:37:54.574Z,2.08
2023-03-18T21:40:25.117Z,1.92
2023-03-18T21:42:52.275Z,1.95
2023-03-18T21:45:24.335Z,1.63
2023-03-18T21:48:17.480Z,1.42
2023-03-18T21:53:21.942Z,1.90
2023-03-18T21:55:53.242Z,1.50
2023-03-18T21:59:12.616Z,1.92
2023-03-18T22:02:15.965Z,1.70
2023-03-18T22:04:47.477Z,1.90
2023-03-18T22:07:42.035Z,1.80
2023-03-18T22:10:16.875Z,1.90
2023-03-18T22:17:22.002Z,2.30
2023-03-18T22:19:50.687Z,1.98
2023-03-18T22:22:51.508Z,2.30
2023-03-18T22:25:36.284Z,2.28
2023-03-18T22:28:03.984Z,2.28
2023-03-18T22:30:34.873Z,2.20
2023-03-18T22:33:06.676Z,2.45
2023-03-18T22:35:36.856Z,2.37
2023-03-18T22:38:05.295Z,2.20
2023-03-18T22:43:35.390Z,2.42
2023-03-18T22:46:08.629Z,2.55
2023-03-18T22:48:37.655Z,2.70
2023-03-18T22:53:52.998Z,2.30
2023-03-18T22:56:22.862Z,2.63
2023-03-18T22:58:53.588Z,2.40
2023-03-18T23:01:27.985Z,2.97
2023-03-18T23:03:56.479Z,2.50
2023-03-18T23:09:09.125Z,2.75
2023-03-18T23:11:45.385Z,2.60
2023-03-18T23:14:18.157Z,2.92
2023-03-18T23:16:45.745Z,2.40
2023-03-18T23:19:12.904Z,2.58
2023-03-18T23:21:42.746Z,2.70
2023-03-18T23:24:17.895Z,2.90
2023-03-18T23:26:47.584Z,3.00
2023-03-18T23:29:14.708Z,3.00
2023-03-18T23:31:46.615Z,3.17
2023-03-18T23:34:19.490Z,2.83
2023-03-18T23:36:50.978Z,3.20
2023-03-18T23:39:19.498Z,3.05
2023-03-18T23:41:47.702Z,3.45
2023-03-18T23:44:14.587Z,3.17
2023-03-18T23:46:42.876Z,2.88
2023-03-18T23:49:11.526Z,3.13
2023-03-18T23:51:39.853Z,2.75
2023-03-18T23:54:11.783Z,2.67
2023-03-18T23:56:38.822Z,2.88
2023-03-18T23:59:11.588Z,2.63
